createdAt,value
2023-05-25T09:55:53.714Z,0.3593
2023-05-25T09:56:47.672Z,0.3845
2023-05-25T09:57:49.348Z,0.4044
2023-05-25T09:58:51.058Z,0.4135
2023-05-25T09:59:52.819Z,0.4228
2023-05-25T10:00:54.585Z,0.4203
2023-05-25T10:01:56.376Z,0.4244
2023-05-25T10:02:58.035Z,0.4189
2023-05-25T10:04:04.690Z,0.4154
2023-05-25T10:05:01.559Z,0.4188
2023-05-25T10:06:03.210Z,0.4195
2023-05-25T10:07:04.927Z,0.4177
2023-05-25T10:08:06.681Z,0.4195
2023-05-25T10:09:08.401Z,0.4199
2023-05-25T10:10:10.156Z,0.4210
2023-05-25T10:11:11.919Z,0.4203
2023-05-25T10:12:13.614Z,0.4198
2023-05-25T10:13:15.358Z,0.4221
2023-05-25T10:14:17.095Z,0.4306
2023-05-25T10:15:18.814Z,0.4339
2023-05-25T10:16:20.586Z,0.4312
2023-05-25T10:17:22.419Z,0.4315
2023-05-25T10:18:24.003Z,0.4301
2023-05-25T10:19:25.748Z,0.4308
2023-05-25T10:20:29.970Z,0.4292
2023-05-25T10:21:29.219Z,0.4296
2023-05-25T10:22:30.985Z,0.4296
2023-05-25T10:23:32.671Z,0.4270
2023-05-25T10:24:34.475Z,0.4224
2023-05-25T10:25:36.166Z,0.4238
2023-05-25T10:26:37.879Z,0.4252
2023-05-25T10:27:39.615Z,0.4247
2023-05-25T10:28:41.346Z,0.4233
2023-05-25T10:29:43.089Z,0.4240
2023-05-25T10:30:44.815Z,0.4253
2023-05-25T10:31:46.577Z,0.4304
2023-05-25T10:32:48.410Z,0.4334
2023-05-25T10:33:52.266Z,0.4336
2023-05-25T10:34:51.745Z,0.4362
2023-05-25T10:36:03.056Z,0.4389
2023-05-25T10:36:55.176Z,0.4415
2023-05-25T10:37:56.925Z,0.4389
2023-05-25T10:38:58.641Z,0.4365
2023-05-25T10:40:00.383Z,0.4332
2023-05-25T10:41:02.134Z,0.4312
2023-05-25T10:42:03.840Z,0.4303
2023-05-25T10:43:05.584Z,0.4274
2023-05-25T10:44:07.296Z,0.4244
2023-05-25T10:45:09.055Z,0.4205
2023-05-25T10:46:10.767Z,0.4203
2023-05-25T10:47:12.560Z,0.4213
2023-05-25T10:48:14.349Z,0.4227
2023-05-25T10:49:15.953Z,0.4275
2023-05-25T10:50:17.710Z,0.4261
2023-05-25T10:51:19.538Z,0.4251
2023-05-25T10:52:21.152Z,0.4205
2023-05-25T10:53:22.916Z,0.4181
2023-05-25T10:54:24.639Z,0.4141
2023-05-25T10:55:26.332Z,0.4120
2023-05-25T10:56:28.069Z,0.4125
2023-05-25T10:57:29.830Z,0.4123
2023-05-25T10:58:31.569Z,0.4089
2023-05-25T10:59:33.287Z,0.4108
2023-05-25T11:00:35.069Z,0.4058
2023-05-25T11:01:36.883Z,0.4036
2023-05-25T11:02:38.509Z,0.4029
2023-05-25T11:03:40.224Z,0.4031
2023-05-25T11:04:41.976Z,0.4007
2023-05-25T11:05:43.849Z,0.3982
2023-05-25T11:06:45.406Z,0.4020
2023-05-25T11:07:47.115Z,0.4053
2023-05-25T11:08:48.893Z,0.4034
2023-05-25T11:09:50.594Z,0.4006
2023-05-25T11:10:52.285Z,0.3996
2023-05-25T11:11:54.021Z,0.4004
2023-05-25T11:12:55.757Z,0.3980
2023-05-25T11:13:57.537Z,0.3989
2023-05-25T11:14:59.222Z,0.4019
2023-05-25T11:16:00.936Z,0.4044
2023-05-25T11:17:02.683Z,0.4034
2023-05-25T11:18:04.510Z,0.4015
2023-05-25T11:19:06.162Z,0.3989
2023-05-25T11:20:08.028Z,0.3964
2023-05-25T11:21:09.611Z,0.3974
2023-05-25T11:22:11.353Z,0.3991
2023-05-25T11:23:13.106Z,0.3972
2023-05-25T11:24:14.786Z,0.3970
2023-05-25T11:25:16.538Z,0.3970
2023-05-25T11:26:18.248Z,0.3960
2023-05-25T11:27:19.983Z,0.3948
2023-05-25T11:28:21.817Z,0.3937
2023-05-25T11:29:23.441Z,0.3951
2023-05-25T11:30:25.177Z,0.3954
2023-05-25T11:31:26.943Z,0.3958
2023-05-25T11:32:28.883Z,0.3969
2023-05-25T11:33:30.370Z,0.3933
2023-05-25T11:34:32.198Z,0.3993
2023-05-25T11:35:33.881Z,0.3954
2023-05-25T11:36:35.582Z,0.3920
2023-05-25T11:37:37.320Z,0.3936
2023-05-25T11:38:39.065Z,0.3974
2023-05-25T11:39:40.767Z,0.3957
2023-05-25T11:40:42.561Z,0.3938
2023-05-25T11:41:44.260Z,0.3948
2023-05-25T11:42:45.975Z,0.3936
2023-05-25T11:43:47.729Z,0.3956
2023-05-25T11:44:49.461Z,0.3986
2023-05-25T11:45:51.180Z,0.3991
2023-05-25T11:46:53.112Z,0.4035
2023-05-25T11:47:54.693Z,0.4039
2023-05-25T11:48:56.391Z,0.4049
2023-05-25T11:49:58.116Z,0.4057
2023-05-25T11:50:59.847Z,0.4077
2023-05-25T11:52:01.579Z,0.4087
2023-05-25T11:53:03.340Z,0.4133
2023-05-25T11:54:05.056Z,0.4126
2023-05-25T11:55:06.785Z,0.4133
2023-05-25T11:56:08.686Z,0.4107
2023-05-25T11:57:10.207Z,0.4049
2023-05-25T11:58:11.987Z,0.4065
2023-05-25T11:59:13.733Z,0.4051
2023-05-25T12:00:15.413Z,0.4013
2023-05-25T12:01:17.151Z,0.3998
2023-05-25T12:02:18.867Z,0.3993
2023-05-25T12:03:21.073Z,0.3988
2023-05-25T12:04:24.212Z,0.3980
2023-05-25T12:05:24.245Z,0.3989
2023-05-25T12:06:25.788Z,0.3981
2023-05-25T12:07:27.544Z,0.3977
2023-05-25T12:08:29.266Z,0.3980
2023-05-25T12:09:30.980Z,0.3991
2023-05-25T12:10:32.723Z,0.3990
2023-05-25T12:11:34.509Z,0.3957
2023-05-25T12:12:36.173Z,0.3936
2023-05-25T12:13:37.924Z,0.3944
2023-05-25T12:14:39.636Z,0.3928
2023-05-25T12:15:41.539Z,0.3923
2023-05-25T12:16:43.130Z,0.3956
2023-05-25T12:17:44.865Z,0.3945
2023-05-25T12:18:46.581Z,0.3917
2023-05-25T12:19:48.300Z,0.3942
2023-05-25T12:20:50.101Z,0.3978
2023-05-25T12:21:51.982Z,0.3965
2023-05-25T12:22:53.485Z,0.3951
2023-05-25T12:23:55.233Z,0.3959
2023-05-25T12:24:56.941Z,0.3959
2023-05-25T12:25:58.689Z,0.3949
2023-05-25T12:27:00.414Z,0.3972
2023-05-25T12:28:02.130Z,0.3982
2023-05-25T12:29:03.874Z,0.3974
2023-05-25T12:30:05.596Z,0.3952
2023-05-25T12:31:07.367Z,0.3922
2023-05-25T12:32:09.074Z,0.3927
2023-05-25T12:33:10.782Z,0.3968
2023-05-25T12:34:12.540Z,0.3967
2023-05-25T12:35:14.272Z,0.3990
2023-05-25T12:36:15.992Z,0.4000
2023-05-25T12:37:17.700Z,0.4069
2023-05-25T12:38:19.472Z,0.4063
2023-05-25T12:39:22.544Z,0.4038
2023-05-25T12:40:22.913Z,0.4031
2023-05-25T12:41:24.654Z,0.4016
2023-05-25T12:42:26.357Z,0.4017
2023-05-25T12:43:28.107Z,0.4046
2023-05-25T12:44:29.849Z,0.4037
2023-05-25T12:45:31.565Z,0.4102
2023-05-25T12:46:33.361Z,0.4185
2023-05-25T12:47:35.005Z,0.4250
2023-05-25T12:48:36.760Z,0.4277
2023-05-25T12:49:38.493Z,0.4324
2023-05-25T12:50:41.083Z,0.4321
2023-05-25T12:51:41.940Z,0.4292
2023-05-25T12:52:43.655Z,0.4246
2023-05-25T12:53:45.398Z,0.4234
2023-05-25T12:54:47.139Z,0.4208
2023-05-25T12:55:48.851Z,0.4180
2023-05-25T12:56:50.607Z,0.4195
2023-05-25T12:57:52.335Z,0.4175
2023-05-25T12:58:54.056Z,0.4189
2023-05-25T12:59:55.792Z,0.4177
2023-05-25T13:00:57.503Z,0.4129
2023-05-25T13:01:59.262Z,0.4103
2023-05-25T13:03:00.959Z,0.4091
2023-05-25T13:04:02.701Z,0.4103
2023-05-25T13:05:04.441Z,0.4110
2023-05-25T13:06:06.154Z,0.4142
2023-05-25T13:07:07.884Z,0.4154
2023-05-25T13:08:09.596Z,0.4190
2023-05-25T13:09:11.342Z,0.4211
2023-05-25T13:10:13.111Z,0.4232
2023-05-25T13:11:14.828Z,0.4212
2023-05-25T13:12:16.547Z,0.4211
2023-05-25T13:13:18.242Z,0.4248
2023-05-25T13:14:20.007Z,0.4233
2023-05-25T13:15:21.726Z,0.4210
2023-05-25T13:16:23.486Z,0.4230
2023-05-25T13:17:25.224Z,0.4233
2023-05-25T13:18:26.927Z,0.4226
2023-05-25T13:19:28.624Z,0.4207
2023-05-25T13:20:30.474Z,0.4193
2023-05-25T13:21:32.107Z,0.4159
2023-05-25T13:22:33.818Z,0.4150
2023-05-25T13:23:35.549Z,0.4156
2023-05-25T13:24:37.296Z,0.4182
2023-05-25T13:25:39.016Z,0.4185
2023-05-25T13:26:40.744Z,0.4162
2023-05-25T13:27:42.472Z,0.4159
2023-05-25T13:28:44.213Z,0.4143
2023-05-25T13:29:45.952Z,0.4156
2023-05-25T13:30:47.654Z,0.4143
2023-05-25T13:31:49.423Z,0.4133
2023-05-25T13:32:51.905Z,0.4149
2023-05-25T13:33:52.833Z,0.4143
2023-05-25T13:34:54.581Z,0.4173
2023-05-25T13:35:56.316Z,0.4140
2023-05-25T13:36:58.031Z,0.4132
2023-05-25T13:37:59.775Z,0.4112
2023-05-25T13:39:01.513Z,0.4099
2023-05-25T13:40:03.209Z,0.4065
2023-05-25T13:41:04.968Z,0.4042
2023-05-25T13:42:06.707Z,0.4004
2023-05-25T13:43:08.423Z,0.3973
2023-05-25T13:44:10.120Z,0.3981
2023-05-25T13:45:11.884Z,0.4008
2023-05-25T13:46:21.904Z,0.3994
2023-05-25T13:47:15.378Z,0.4033
2023-05-25T13:48:17.149Z,0.4037
2023-05-25T13:49:18.782Z,0.4047
2023-05-25T13:50:20.511Z,0.4035
2023-05-25T13:51:22.220Z,0.4002
2023-05-25T13:52:23.940Z,0.3992
2023-05-25T13:53:25.712Z,0.3988
2023-05-25T13:54:27.404Z,0.3991
2023-05-25T13:55:29.122Z,0.3988
2023-05-25T13:56:30.892Z,0.3966
2023-05-25T13:57:32.716Z,0.3957
2023-05-25T13:58:34.399Z,0.3964
2023-05-25T13:59:36.149Z,0.3994
2023-05-25T14:01:40.661Z,0.4070
2023-05-25T14:02:44.616Z,0.4080
2023-05-25T14:03:48.548Z,0.4083
2023-05-25T14:04:52.485Z,0.4099
2023-05-25T14:05:56.468Z,0.4086
2023-05-25T14:07:00.661Z,0.4095
2023-05-25T14:08:04.520Z,0.4149
2023-05-25T14:09:08.519Z,0.4153
2023-05-25T14:10:12.391Z,0.4173
2023-05-25T14:11:17.164Z,0.4167
2023-05-25T14:12:17.240Z,0.4169
2023-05-25T14:13:21.146Z,0.4193
2023-05-25T14:14:31.978Z,0.4187
2023-05-25T14:15:29.561Z,0.4165
2023-05-25T14:16:33.539Z,0.4175
2023-05-25T14:17:37.895Z,0.4196
2023-05-25T14:18:41.780Z,0.4211
2023-05-25T14:19:45.701Z,0.4220
2023-05-25T14:20:49.645Z,0.4192
2023-05-25T14:22:11.035Z,0.4202
2023-05-25T14:22:58.014Z,0.4204
2023-05-25T14:24:01.920Z,0.4200
2023-05-25T14:25:06.076Z,0.4181
2023-05-25T14:26:09.986Z,0.4184
2023-05-25T14:27:13.881Z,0.4228
2023-05-25T14:28:17.798Z,0.4239
2023-05-25T14:29:21.712Z,0.4207
2023-05-25T14:30:25.648Z,0.4205
2023-05-25T14:31:29.551Z,0.4174
2023-05-25T14:32:33.503Z,0.4164
2023-05-25T14:33:37.385Z,0.4149
2023-05-25T14:34:41.318Z,0.4164
2023-05-25T14:35:45.436Z,0.4210
2023-05-25T14:36:49.543Z,0.4265
2023-05-25T14:37:53.428Z,0.4282
2023-05-25T14:38:57.312Z,0.4261
2023-05-25T14:40:01.502Z,0.4326
2023-05-25T14:41:05.401Z,0.4360
2023-05-25T14:42:09.540Z,0.4365
2023-05-25T14:43:13.482Z,0.4379
2023-05-25T14:44:17.383Z,0.4315
2023-05-25T14:45:21.284Z,0.4322
2023-05-25T14:46:25.223Z,0.4377
2023-05-25T14:47:29.142Z,0.4346
2023-05-25T14:48:33.174Z,0.4301
2023-05-25T14:49:37.122Z,0.4267
2023-05-25T14:50:41.036Z,0.4305
2023-05-25T14:51:44.912Z,0.4317
2023-05-25T14:52:48.824Z,0.4351
2023-05-25T14:53:52.731Z,0.4324
2023-05-25T14:54:56.869Z,0.4301
2023-05-25T14:56:00.773Z,0.4251
2023-05-25T14:57:04.672Z,0.4245
2023-05-25T14:58:08.601Z,0.4260
2023-05-25T14:59:12.495Z,0.4220
2023-05-25T15:00:16.406Z,0.4141
2023-05-25T15:01:20.610Z,0.4106
2023-05-25T15:02:25.482Z,0.4122
2023-05-25T15:03:29.496Z,0.4130
2023-05-25T15:04:33.510Z,0.4148
2023-05-25T15:05:37.416Z,0.4142
2023-05-25T15:06:41.341Z,0.4144
2023-05-25T15:07:45.234Z,0.4120
2023-05-25T15:08:49.159Z,0.4080
2023-05-25T15:09:53.264Z,0.4054
2023-05-25T15:10:57.172Z,0.4063
2023-05-25T15:12:01.078Z,0.4085
2023-05-25T15:13:04.999Z,0.4051
2023-05-25T15:14:08.878Z,0.4024
2023-05-25T15:15:12.799Z,0.4022
2023-05-25T15:16:16.863Z,0.4016
2023-05-25T15:17:20.855Z,0.3995
2023-05-25T15:18:24.754Z,0.3985
2023-05-25T15:19:28.671Z,0.3983
2023-05-25T15:20:32.606Z,0.3984
2023-05-25T15:21:36.482Z,0.3969
2023-05-25T15:22:40.393Z,0.3973
2023-05-25T15:23:44.332Z,0.3960
2023-05-25T15:24:48.226Z,0.3953
2023-05-25T15:25:52.257Z,0.3951
2023-05-25T15:26:56.272Z,0.3938
2023-05-25T15:28:00.278Z,0.3970
2023-05-25T15:29:04.276Z,0.3978
2023-05-25T15:30:08.406Z,0.4001
2023-05-25T15:31:12.414Z,0.4008
2023-05-25T15:32:16.323Z,0.4016
2023-05-25T15:33:20.233Z,0.4029
2023-05-25T15:34:24.159Z,0.4030
2023-05-25T15:35:28.052Z,0.4038
2023-05-25T15:36:31.979Z,0.4006
2023-05-25T15:37:35.919Z,0.3999
2023-05-25T15:38:39.829Z,0.3972
2023-05-25T15:39:40.015Z,0.3947
2023-05-25T15:40:43.905Z,0.3927
2023-05-25T15:41:47.812Z,0.3917
2023-05-25T15:42:51.970Z,0.3915
2023-05-25T15:43:55.870Z,0.3916
2023-05-25T15:44:59.770Z,0.3929
2023-05-25T15:46:03.786Z,0.3976
2023-05-25T15:47:07.749Z,0.3986
2023-05-25T15:48:11.696Z,0.3957
2023-05-25T15:49:15.597Z,0.3943
2023-05-25T15:50:19.506Z,0.3942
2023-05-25T15:51:23.420Z,0.3929
2023-05-25T15:52:27.334Z,0.3948
2023-05-25T15:53:31.240Z,0.3945
2023-05-25T15:54:35.153Z,0.3926
2023-05-25T15:55:39.058Z,0.3917
2023-05-25T15:56:42.974Z,0.3922
2023-05-25T15:57:47.127Z,0.3915
2023-05-25T15:58:51.024Z,0.3910
2023-05-25T15:59:55.006Z,0.3900
2023-05-25T16:00:58.893Z,0.3913
2023-05-25T16:02:02.840Z,0.3915
2023-05-25T16:03:06.749Z,0.3923
2023-05-25T16:04:10.655Z,0.3914
2023-05-25T16:05:14.528Z,0.3931
2023-05-25T16:06:18.454Z,0.3951
2023-05-25T16:07:22.595Z,0.3959
2023-05-25T16:08:26.547Z,0.3961
2023-05-25T16:09:30.444Z,0.3960
2023-05-25T16:10:34.356Z,0.3948
2023-05-25T16:11:38.274Z,0.3933
2023-05-25T16:12:42.263Z,0.3939
2023-05-25T16:13:46.154Z,0.3951
2023-05-25T16:14:50.094Z,0.3959
2023-05-25T16:15:54.000Z,0.3973
2023-05-25T16:16:58.107Z,0.3981
2023-05-25T16:18:02.030Z,0.3985
2023-05-25T16:19:06.098Z,0.3994
2023-05-25T16:20:10.269Z,0.4004
2023-05-25T16:21:14.139Z,0.4021
2023-05-25T16:22:18.074Z,0.4035
2023-05-25T16:23:21.979Z,0.4045
2023-05-25T16:24:27.143Z,0.4059
2023-05-25T16:26:25.161Z,0.8774
2023-05-25T16:27:26.986Z,0.6134
2023-05-25T16:28:28.608Z,0.4871
2023-05-25T16:29:30.333Z,0.5496
2023-05-25T16:30:32.097Z,0.5841
2023-05-25T16:31:33.834Z,0.5370
2023-05-25T16:32:35.553Z,0.4985
2023-05-25T16:33:37.298Z,0.5046
2023-05-25T16:34:39.020Z,0.4967
2023-05-25T16:35:40.751Z,0.4806
2023-05-25T16:36:42.461Z,0.4725
2023-05-25T16:37:44.192Z,0.4674
2023-05-25T16:38:45.971Z,0.4727
2023-05-25T16:39:47.674Z,0.4788
2023-05-25T16:40:49.416Z,0.4852
2023-05-25T16:41:51.143Z,0.4851
2023-05-25T16:42:52.851Z,0.4790
2023-05-25T16:43:54.610Z,0.4644
2023-05-25T16:44:56.318Z,0.4569
2023-05-25T16:45:58.099Z,0.4564
2023-05-25T16:46:59.791Z,0.4608
2023-05-25T16:48:01.551Z,0.4613
2023-05-25T16:49:03.239Z,0.4627
2023-05-25T16:50:05.097Z,0.4530
2023-05-25T16:51:06.725Z,0.4537
2023-05-25T16:52:08.431Z,0.4497
2023-05-25T16:53:10.164Z,0.4453
2023-05-25T16:54:11.919Z,0.4449
2023-05-25T16:55:13.623Z,0.4415
2023-05-25T16:56:15.377Z,0.4378
2023-05-25T16:57:17.106Z,0.4336
2023-05-25T16:58:18.839Z,0.4353
2023-05-25T16:59:20.576Z,0.4345
2023-05-25T17:00:22.283Z,0.4365
2023-05-25T17:01:24.049Z,0.4422
2023-05-25T17:02:25.916Z,0.4396
2023-05-25T17:03:27.593Z,0.4437
2023-05-25T17:04:29.214Z,0.4443
2023-05-25T17:05:30.971Z,0.4422
2023-05-25T17:06:32.675Z,0.4384
2023-05-25T17:07:34.590Z,0.4331
2023-05-25T17:08:36.169Z,0.4315
2023-05-25T17:09:37.891Z,0.4312
2023-05-25T17:10:39.618Z,0.4288
2023-05-25T17:11:41.363Z,0.4283
2023-05-25T17:12:43.060Z,0.4298
2023-05-25T17:13:44.799Z,0.4289
2023-05-25T17:14:46.560Z,0.4229
2023-05-25T17:15:48.356Z,0.4218
2023-05-25T17:16:50.112Z,0.4206
2023-05-25T17:17:51.795Z,0.4221
2023-05-25T17:18:53.458Z,0.4257
2023-05-25T17:19:55.224Z,0.4243
2023-05-25T17:20:56.912Z,0.4260
2023-05-25T17:21:58.659Z,0.4239
2023-05-25T17:23:00.387Z,0.4228
2023-05-25T17:24:02.098Z,0.4235
2023-05-25T17:25:03.849Z,0.4258
2023-05-25T17:26:05.590Z,0.4268
2023-05-25T17:27:07.301Z,0.4284
2023-05-25T17:28:09.049Z,0.4291
2023-05-25T17:29:10.737Z,0.4278
2023-05-25T17:30:12.498Z,0.4242
2023-05-25T17:31:14.256Z,0.4252
2023-05-25T17:32:16.145Z,0.4237
2023-05-25T17:33:17.688Z,0.4232
2023-05-25T17:34:19.414Z,0.4197
2023-05-25T17:35:21.138Z,0.4211
2023-05-25T17:36:22.856Z,0.4223
2023-05-25T17:37:24.592Z,0.4200
2023-05-25T17:38:26.308Z,0.4208
2023-05-25T17:39:28.083Z,0.4190
2023-05-25T17:40:29.802Z,0.4183
2023-05-25T17:41:31.512Z,0.4151
2023-05-25T17:42:33.235Z,0.4123
2023-05-25T17:43:34.969Z,0.4140
2023-05-25T17:44:36.677Z,0.4140
2023-05-25T17:45:38.458Z,0.4123
2023-05-25T17:46:40.163Z,0.4112
2023-05-25T17:47:41.896Z,0.4124
2023-05-25T17:48:43.611Z,0.4100
2023-05-25T17:49:45.352Z,0.4095
2023-05-25T17:50:47.040Z,0.4092
2023-05-25T17:51:48.872Z,0.4086
2023-05-25T17:52:50.521Z,0.4081
2023-05-25T17:53:52.234Z,0.4057
2023-05-25T17:54:53.959Z,0.4067
2023-05-25T17:55:55.696Z,0.4094
2023-05-25T17:56:57.438Z,0.4087
2023-05-25T17:57:59.160Z,0.4061
2023-05-25T17:59:00.863Z,0.4071
2023-05-25T18:00:02.616Z,0.4056
2023-05-25T18:01:04.509Z,0.4045
2023-05-25T18:02:06.192Z,0.4032
2023-05-25T18:03:07.859Z,0.4039
2023-05-25T18:04:09.626Z,0.4027
2023-05-25T18:05:11.266Z,0.4038
2023-05-25T18:06:12.969Z,0.4038
2023-05-25T18:07:14.682Z,0.4045
2023-05-25T18:08:16.394Z,0.4047
2023-05-25T18:09:18.149Z,0.4042
2023-05-25T18:10:19.877Z,0.4039
2023-05-25T18:11:21.575Z,0.4032
2023-05-25T18:12:23.346Z,0.4026
2023-05-25T18:13:25.031Z,0.4030
2023-05-25T18:14:26.752Z,0.4034
2023-05-25T18:15:28.547Z,0.4050
2023-05-25T18:16:30.265Z,0.4059
2023-05-25T18:17:32.020Z,0.4046
2023-05-25T18:18:33.721Z,0.4047
2023-05-25T18:19:35.417Z,0.4038
2023-05-25T18:20:37.139Z,0.4005
2023-05-25T18:21:38.865Z,0.3996
2023-05-25T18:22:40.605Z,0.3994
2023-05-25T18:23:42.304Z,0.3992
2023-05-25T18:24:44.054Z,0.4000
2023-05-25T18:25:46.196Z,0.3995
2023-05-25T18:26:47.505Z,0.4004
2023-05-25T18:27:49.226Z,0.4008
2023-05-25T18:28:50.938Z,0.3993
2023-05-25T18:29:52.671Z,0.3992
2023-05-25T18:30:54.412Z,0.3992
2023-05-25T18:31:56.137Z,0.4009
2023-05-25T18:32:57.877Z,0.4005
2023-05-25T18:33:59.565Z,0.3997
2023-05-25T18:35:01.327Z,0.3981
2023-05-25T18:36:03.064Z,0.3983
2023-05-25T18:37:04.751Z,0.3978
2023-05-25T18:38:06.535Z,0.3987
2023-05-25T18:39:08.223Z,0.3997
2023-05-25T18:40:09.931Z,0.4002
2023-05-25T18:41:11.680Z,0.3999
2023-05-25T18:42:13.444Z,0.3986
2023-05-25T18:43:15.150Z,0.3978
2023-05-25T18:44:16.864Z,0.3978
2023-05-25T18:45:18.597Z,0.3982
2023-05-25T18:46:20.351Z,0.3980
2023-05-25T18:47:22.063Z,0.3999
2023-05-25T18:48:23.775Z,0.4010
2023-05-25T18:49:25.477Z,0.4012
2023-05-25T18:50:27.198Z,0.4005
2023-05-25T18:51:28.954Z,0.4017
2023-05-25T18:52:30.649Z,0.4032
2023-05-25T18:53:32.386Z,0.4046
2023-05-25T18:54:34.160Z,0.4056
2023-05-25T18:55:35.854Z,0.4044
2023-05-25T18:56:37.566Z,0.4040
2023-05-25T18:57:39.320Z,0.4038
2023-05-25T18:58:41.034Z,0.4044
2023-05-25T18:59:42.768Z,0.4042
2023-05-25T19:00:44.491Z,0.4048
2023-05-25T19:01:46.259Z,0.4049
2023-05-25T19:02:48.018Z,0.4041
2023-05-25T19:03:49.696Z,0.4052
2023-05-25T19:04:51.391Z,0.4052
2023-05-25T19:05:53.097Z,0.4049
2023-05-25T19:06:54.835Z,0.4042
2023-05-25T19:07:59.644Z,0.4023
2023-05-25T19:08:58.295Z,0.4023
2023-05-25T19:09:59.999Z,0.4037
2023-05-25T19:11:01.745Z,0.4049
2023-05-25T19:12:03.497Z,0.4044
2023-05-25T19:13:05.197Z,0.4040
2023-05-25T19:14:06.921Z,0.4036
2023-05-25T19:15:08.673Z,0.4038
2023-05-25T19:16:10.385Z,0.4032
2023-05-25T19:17:12.088Z,0.4032
2023-05-25T19:18:13.874Z,0.4033
2023-05-25T19:19:15.586Z,0.4027
2023-05-25T19:20:17.377Z,0.4023
2023-05-25T19:21:19.019Z,0.4020
2023-05-25T19:22:20.749Z,0.4018
2023-05-25T19:23:22.458Z,0.4020
2023-05-25T19:24:24.192Z,0.4031
2023-05-25T19:25:25.953Z,0.4028
2023-05-25T19:26:27.625Z,0.4026
2023-05-25T19:27:29.359Z,0.4013
2023-05-25T19:28:31.099Z,0.4004
2023-05-25T19:29:32.805Z,0.3998
2023-05-25T19:30:34.547Z,0.3997
2023-05-25T19:31:36.325Z,0.3992
2023-05-25T19:32:38.032Z,0.3990
2023-05-25T19:33:39.724Z,0.3986
2023-05-25T19:34:41.469Z,0.3988
2023-05-25T19:35:43.254Z,0.3993
2023-05-25T19:36:44.919Z,0.4008
2023-05-25T19:37:46.636Z,0.4006
2023-05-25T19:38:48.365Z,0.4003
2023-05-25T19:39:50.109Z,0.4009
2023-05-25T19:40:51.817Z,0.4006
2023-05-25T19:41:53.563Z,0.4002
2023-05-25T19:42:55.289Z,0.3988
2023-05-25T19:43:57.011Z,0.3972
2023-05-25T19:44:58.767Z,0.3970
2023-05-25T19:46:00.508Z,0.3969
2023-05-25T19:47:02.179Z,0.3963
2023-05-25T19:48:03.967Z,0.3972
2023-05-25T19:49:05.659Z,0.3975
2023-05-25T19:50:07.367Z,0.3967
2023-05-25T19:51:09.095Z,0.3976
2023-05-25T19:52:10.863Z,0.3978
2023-05-25T19:53:12.557Z,0.3997
2023-05-25T19:54:14.298Z,0.4007
2023-05-25T19:55:16.030Z,0.4034
2023-05-25T19:56:17.735Z,0.4059
2023-05-25T19:57:19.469Z,0.4057
2023-05-25T19:58:21.218Z,0.4061
2023-05-25T19:59:22.940Z,0.4051
2023-05-25T20:00:26.782Z,0.4049
2023-05-25T20:01:26.446Z,0.4054
2023-05-25T20:02:28.219Z,0.4047
2023-05-25T20:03:30.045Z,0.4040
2023-05-25T20:04:31.666Z,0.4046
2023-05-25T20:05:33.320Z,0.4054
2023-05-25T20:06:35.033Z,0.4049
2023-05-25T20:07:36.753Z,0.4048
2023-05-25T20:08:38.496Z,0.4055
2023-05-25T20:09:40.201Z,0.4063
2023-05-25T20:10:41.926Z,0.4066
2023-05-25T20:11:43.651Z,0.4066
2023-05-25T20:12:45.445Z,0.4069
2023-05-25T20:13:47.132Z,0.4055
2023-05-25T20:14:48.881Z,0.4054
2023-05-25T20:15:50.675Z,0.4059
2023-05-25T20:16:52.323Z,0.4066
2023-05-25T20:17:54.036Z,0.4061
2023-05-25T20:18:55.783Z,0.4047
2023-05-25T20:19:57.503Z,0.4026
2023-05-25T20:20:59.210Z,0.4027
2023-05-25T20:22:00.961Z,0.4020
2023-05-25T20:23:02.668Z,0.4016
2023-05-25T20:24:04.439Z,0.4034
2023-05-25T20:25:06.176Z,0.4046
2023-05-25T20:26:07.863Z,0.4029
2023-05-25T20:27:09.613Z,0.4023
2023-05-25T20:28:11.399Z,0.4034
2023-05-25T20:29:13.154Z,0.4062
2023-05-25T20:30:15.657Z,0.4081
2023-05-25T20:31:16.659Z,0.4094
2023-05-25T20:32:18.318Z,0.4115
2023-05-25T20:33:20.072Z,0.4106
2023-05-25T20:34:21.775Z,0.4106
2023-05-25T20:35:23.515Z,0.4111
2023-05-25T20:36:25.214Z,0.4103
2023-05-25T20:37:26.966Z,0.4112
2023-05-25T20:38:28.689Z,0.4119
2023-05-25T20:39:30.402Z,0.4129
2023-05-25T20:40:32.156Z,0.4140
2023-05-25T20:41:33.871Z,0.4139
2023-05-25T20:42:35.605Z,0.4145
2023-05-25T20:43:37.314Z,0.4161
2023-05-25T20:44:39.053Z,0.4175
2023-05-25T20:45:40.828Z,0.4191
2023-05-25T20:46:42.602Z,0.4195
2023-05-25T20:47:44.222Z,0.4208
2023-05-25T20:48:45.957Z,0.4196
2023-05-25T20:49:47.699Z,0.4174
2023-05-25T20:50:49.391Z,0.4167
2023-05-25T20:51:51.126Z,0.4175
2023-05-25T20:52:52.880Z,0.4183
2023-05-25T20:53:54.606Z,0.4175
2023-05-25T20:54:56.309Z,0.4178
2023-05-25T20:55:58.065Z,0.4172
2023-05-25T20:57:01.381Z,0.4157
2023-05-25T20:58:01.492Z,0.4153
2023-05-25T20:59:03.251Z,0.4157
2023-05-25T21:00:04.987Z,0.4147
2023-05-25T21:01:06.708Z,0.4145
2023-05-25T21:02:08.545Z,0.4152
2023-05-25T21:03:10.269Z,0.4151
2023-05-25T21:04:11.890Z,0.4140
2023-05-25T21:05:13.615Z,0.4147
2023-05-25T21:06:15.318Z,0.4145
2023-05-25T21:07:17.054Z,0.4158
2023-05-25T21:08:18.798Z,0.4162
2023-05-25T21:09:20.511Z,0.4172
2023-05-25T21:10:22.237Z,0.4174
2023-05-25T21:11:23.974Z,0.4171
2023-05-25T21:12:25.681Z,0.4168
2023-05-25T21:13:27.424Z,0.4155
2023-05-25T21:14:29.163Z,0.4148
2023-05-25T21:15:30.901Z,0.4155
2023-05-25T21:16:32.632Z,0.4150
2023-05-25T21:17:34.468Z,0.4142
2023-05-25T21:18:36.065Z,0.4138
2023-05-25T21:19:37.836Z,0.4137
2023-05-25T21:20:39.640Z,0.4121
2023-05-25T21:21:41.260Z,0.4121
2023-05-25T21:22:42.964Z,0.4109
2023-05-25T21:23:44.688Z,0.4096
2023-05-25T21:24:46.441Z,0.4084
2023-05-25T21:25:48.513Z,0.4082
2023-05-25T21:26:49.873Z,0.4058
2023-05-25T21:27:51.619Z,0.4058
2023-05-25T21:28:53.352Z,0.4071
2023-05-25T21:29:55.054Z,0.4069
2023-05-25T21:30:56.846Z,0.4056
2023-05-25T21:31:58.530Z,0.4047
2023-05-25T21:33:00.328Z,0.4053
2023-05-25T21:34:02.089Z,0.4053
2023-05-25T21:35:03.715Z,0.4055
2023-05-25T21:36:05.413Z,0.4051
2023-05-25T21:37:07.177Z,0.4063
2023-05-25T21:38:08.915Z,0.4073
2023-05-25T21:39:10.623Z,0.4075
2023-05-25T21:40:12.353Z,0.4086
2023-05-25T21:41:14.101Z,0.4089
2023-05-25T21:42:15.803Z,0.4100
2023-05-25T21:43:17.532Z,0.4105
2023-05-25T21:44:19.260Z,0.4146
2023-05-25T21:45:20.981Z,0.4145
2023-05-25T21:46:22.689Z,0.4137
2023-05-25T21:47:24.533Z,0.4141
2023-05-25T21:48:26.140Z,0.4126
2023-05-25T21:49:27.856Z,0.4105
2023-05-25T21:50:29.603Z,0.4103
2023-05-25T21:51:31.329Z,0.4100
2023-05-25T21:52:33.029Z,0.4091
2023-05-25T21:53:34.792Z,0.4104
2023-05-25T21:54:36.492Z,0.4095
2023-05-25T21:55:38.234Z,0.4075
2023-05-25T21:56:39.942Z,0.4074
2023-05-25T21:57:41.677Z,0.4071
2023-05-25T21:58:43.417Z,0.4061
2023-05-25T21:59:45.138Z,0.4059
2023-05-25T22:00:46.879Z,0.4064
2023-05-25T22:01:48.663Z,0.4080
2023-05-25T22:02:50.391Z,0.4079
2023-05-25T22:03:52.057Z,0.4076
2023-05-25T22:04:53.778Z,0.4075
2023-05-25T22:05:55.500Z,0.4096
2023-05-25T22:06:57.234Z,0.4104
2023-05-25T22:07:58.951Z,0.4105
2023-05-25T22:09:00.673Z,0.4097
2023-05-25T22:10:02.422Z,0.4093
2023-05-25T22:11:04.138Z,0.4083
2023-05-25T22:12:05.852Z,0.4072
2023-05-25T22:13:07.601Z,0.4074
2023-05-25T22:14:09.324Z,0.4086
2023-05-25T22:15:11.056Z,0.4082
2023-05-25T22:16:12.820Z,0.4089
2023-05-25T22:17:14.553Z,0.4091
2023-05-25T22:18:16.224Z,0.4107
2023-05-25T22:19:17.963Z,0.4105
2023-05-25T22:20:19.860Z,0.4105
2023-05-25T22:21:21.387Z,0.4094
2023-05-25T22:22:23.154Z,0.4091
2023-05-25T22:23:24.857Z,0.4085
2023-05-25T22:24:26.558Z,0.4068
2023-05-25T22:25:28.289Z,0.4055
2023-05-25T22:26:30.032Z,0.4037
2023-05-25T22:27:31.736Z,0.4044
2023-05-25T22:28:33.508Z,0.4048
2023-05-25T22:29:35.183Z,0.4046
2023-05-25T22:30:36.988Z,0.4051
2023-05-25T22:31:38.802Z,0.4079
2023-05-25T22:32:40.398Z,0.4071
2023-05-25T22:33:42.086Z,0.4085
2023-05-25T22:34:43.840Z,0.4090
2023-05-25T22:35:45.818Z,0.4107
2023-05-25T22:36:47.278Z,0.4125
2023-05-25T22:37:49.015Z,0.4152
2023-05-25T22:38:50.733Z,0.4144
2023-05-25T22:39:52.465Z,0.4180
2023-05-25T22:40:54.222Z,0.4201
2023-05-25T22:41:55.935Z,0.4207
2023-05-25T22:42:57.647Z,0.4213
2023-05-25T22:43:59.394Z,0.4233
2023-05-25T22:45:01.124Z,0.4236
2023-05-25T22:46:02.836Z,0.4242
2023-05-25T22:47:04.562Z,0.4234
2023-05-25T22:48:06.400Z,0.4230
2023-05-25T22:49:08.004Z,0.4227
2023-05-25T22:50:09.723Z,0.4225
2023-05-25T22:51:11.487Z,0.4222
2023-05-25T22:52:13.195Z,0.4224